sensor_id;sensor_type;location;lat;lon;timestamp;P1;durP1;ratioP1;P2;durP2;ratioP2
18875;SDS011;9570;50.854;13.778;2023-10-08T00:01:03;10.33;;;4.00;;
18875;SDS011;9570;50.854;13.778;2023-10-08T00:03:31;6.33;;;3.73;;
18875;SDS011;9570;50.854;13.778;2023-10-08T00:05:58;6.83;;;3.60;;
18875;SDS011;9570;50.854;13.778;2023-10-08T00:08:23;9.17;;;3.47;;
18875;SDS011;9570;50.854;13.778;2023-10-08T00:10:49;6.83;;;3.50;;
18875;SDS011;9570;50.854;13.778;2023-10-08T00:13:16;7.93;;;3.57;;
18875;SDS011;9570;50.854;13.778;2023-10-08T00:15:42;7.87;;;3.97;;
18875;SDS011;9570;50.854;13.778;2023-10-08T00:18:21;9.57;;;4.07;;
18875;SDS011;9570;50.854;13.778;2023-10-08T00:20:48;9.50;;;3.83;;
18875;SDS011;9570;50.854;13.778;2023-10-08T00:23:22;6.13;;;3.30;;
18875;SDS011;9570;50.854;13.778;2023-10-08T00:25:51;8.40;;;3.87;;
18875;SDS011;9570;50.854;13.778;2023-10-08T00:28:19;5.23;;;3.60;;
18875;SDS011;9570;50.854;13.778;2023-10-08T00:30:46;6.93;;;3.73;;
18875;SDS011;9570;50.854;13.778;2023-10-08T00:33:12;6.60;;;3.43;;
18875;SDS011;9570;50.854;13.778;2023-10-08T00:35:42;8.37;;;3.53;;
18875;SDS011;9570;50.854;13.778;2023-10-08T00:38:08;8.17;;;3.87;;
18875;SDS011;9570;50.854;13.778;2023-10-08T00:40:41;7.60;;;3.83;;
18875;SDS011;9570;50.854;13.778;2023-10-08T00:43:29;6.37;;;3.87;;
18875;SDS011;9570;50.854;13.778;2023-10-08T00:46:00;7.00;;;3.60;;
18875;SDS011;9570;50.854;13.778;2023-10-08T00:48:36;7.70;;;4.10;;
18875;SDS011;9570;50.854;13.778;2023-10-08T00:51:04;8.60;;;3.93;;
18875;SDS011;9570;50.854;13.778;2023-10-08T00:53:52;6.87;;;3.90;;
18875;SDS011;9570;50.854;13.778;2023-10-08T00:56:24;8.13;;;3.77;;
18875;SDS011;9570;50.854;13.778;2023-10-08T00:59:09;8.10;;;3.77;;
18875;SDS011;9570;50.854;13.778;2023-10-08T01:01:38;8.47;;;4.57;;
18875;SDS011;9570;50.854;13.778;2023-10-08T01:04:04;8.27;;;4.27;;
18875;SDS011;9570;50.854;13.778;2023-10-08T01:06:36;6.77;;;3.50;;
18875;SDS011;9570;50.854;13.778;2023-10-08T01:09:04;7.87;;;3.80;;
18875;SDS011;9570;50.854;13.778;2023-10-08T01:11:42;7.97;;;4.17;;
18875;SDS011;9570;50.854;13.778;2023-10-08T01:14:14;9.33;;;4.03;;
18875;SDS011;9570;50.854;13.778;2023-10-08T01:16:41;5.70;;;3.90;;
18875;SDS011;9570;50.854;13.778;2023-10-08T01:19:11;9.83;;;4.03;;
18875;SDS011;9570;50.854;13.778;2023-10-08T01:21:39;9.23;;;4.20;;
18875;SDS011;9570;50.854;13.778;2023-10-08T01:24:05;7.27;;;4.07;;
18875;SDS011;9570;50.854;13.778;2023-10-08T01:26:32;9.13;;;4.70;;
18875;SDS011;9570;50.854;13.778;2023-10-08T01:28:59;10.57;;;4.20;;
18875;SDS011;9570;50.854;13.778;2023-10-08T01:31:29;8.60;;;3.90;;
18875;SDS011;9570;50.854;13.778;2023-10-08T01:33:54;11.70;;;4.53;;
18875;SDS011;9570;50.854;13.778;2023-10-08T01:36:22;7.87;;;4.37;;
18875;SDS011;9570;50.854;13.778;2023-10-08T01:38:50;9.27;;;4.47;;
18875;SDS011;9570;50.854;13.778;2023-10-08T01:41:15;9.97;;;4.77;;
18875;SDS011;9570;50.854;13.778;2023-10-08T01:43:47;8.50;;;4.40;;
18875;SDS011;9570;50.854;13.778;2023-10-08T01:46:17;11.23;;;4.70;;
18875;SDS011;9570;50.854;13.778;2023-10-08T01:48:46;16.70;;;5.03;;
18875;SDS011;9570;50.854;13.778;2023-10-08T01:51:18;11.37;;;4.77;;
18875;SDS011;9570;50.854;13.778;2023-10-08T01:53:54;11.37;;;4.83;;
18875;SDS011;9570;50.854;13.778;2023-10-08T01:56:23;11.63;;;4.27;;
18875;SDS011;9570;50.854;13.778;2023-10-08T01:58:49;7.73;;;4.13;;
18875;SDS011;9570;50.854;13.778;2023-10-08T02:01:19;10.93;;;4.40;;
18875;SDS011;9570;50.854;13.778;2023-10-08T02:03:45;8.37;;;4.47;;
18875;SDS011;9570;50.854;13.778;2023-10-08T02:06:10;8.63;;;4.97;;
18875;SDS011;9570;50.854;13.778;2023-10-08T02:08:37;8.97;;;5.27;;
18875;SDS011;9570;50.854;13.778;2023-10-08T02:11:03;9.77;;;4.57;;
18875;SDS011;9570;50.854;13.778;2023-10-08T02:13:28;10.27;;;4.37;;
18875;SDS011;9570;50.854;13.778;2023-10-08T02:15:55;12.07;;;4.73;;
18875;SDS011;9570;50.854;13.778;2023-10-08T02:18:21;7.93;;;4.20;;
18875;SDS011;9570;50.854;13.778;2023-10-08T02:20:50;9.13;;;4.60;;
18875;SDS011;9570;50.854;13.778;2023-10-08T02:23:16;10.37;;;4.33;;
18875;SDS011;9570;50.854;13.778;2023-10-08T02:25:43;7.83;;;4.53;;
18875;SDS011;9570;50.854;13.778;2023-10-08T02:28:09;13.13;;;4.50;;
18875;SDS011;9570;50.854;13.778;2023-10-08T02:30:40;8.17;;;4.63;;
18875;SDS011;9570;50.854;13.778;2023-10-08T02:33:06;9.23;;;4.17;;
18875;SDS011;9570;50.854;13.778;2023-10-08T02:35:42;16.87;;;5.50;;
18875;SDS011;9570;50.854;13.778;2023-10-08T02:38:09;7.37;;;5.00;;
18875;SDS011;9570;50.854;13.778;2023-10-08T02:40:37;7.90;;;4.97;;
18875;SDS011;9570;50.854;13.778;2023-10-08T02:43:03;4.00;;;3.60;;
18875;SDS011;9570;50.854;13.778;2023-10-08T02:45:33;4.27;;;3.17;;
18875;SDS011;9570;50.854;13.778;2023-10-08T02:48:03;4.43;;;2.40;;
18875;SDS011;9570;50.854;13.778;2023-10-08T02:50:29;2.67;;;1.77;;
18875;SDS011;9570;50.854;13.778;2023-10-08T02:52:54;1.33;;;1.20;;
18875;SDS011;9570;50.854;13.778;2023-10-08T02:55:27;1.33;;;1.00;;
18875;SDS011;9570;50.854;13.778;2023-10-08T02:57:59;1.33;;;0.73;;
18875;SDS011;9570;50.854;13.778;2023-10-08T03:00:28;0.60;;;0.60;;
18875;SDS011;9570;50.854;13.778;2023-10-08T03:02:59;0.43;;;0.43;;
18875;SDS011;9570;50.854;13.778;2023-10-08T03:05:34;0.30;;;0.30;;
18875;SDS011;9570;50.854;13.778;2023-10-08T03:08:01;0.30;;;0.30;;
18875;SDS011;9570;50.854;13.778;2023-10-08T03:10:27;0.30;;;0.30;;
18875;SDS011;9570;50.854;13.778;2023-10-08T03:12:58;0.47;;;0.20;;
18875;SDS011;9570;50.854;13.778;2023-10-08T03:15:31;0.23;;;0.20;;
18875;SDS011;9570;50.854;13.778;2023-10-08T03:18:11;0.10;;;0.10;;
18875;SDS011;9570;50.854;13.778;2023-10-08T03:20:40;0.57;;;0.10;;
18875;SDS011;9570;50.854;13.778;2023-10-08T03:23:08;0.10;;;0.10;;
18875;SDS011;9570;50.854;13.778;2023-10-08T03:25:40;0.10;;;0.10;;
18875;SDS011;9570;50.854;13.778;2023-10-08T03:28:09;0.50;;;0.20;;
18875;SDS011;9570;50.854;13.778;2023-10-08T03:30:38;0.00;;;0.00;;
18875;SDS011;9570;50.854;13.778;2023-10-08T03:33:12;0.10;;;0.10;;
18875;SDS011;9570;50.854;13.778;2023-10-08T03:35:46;0.10;;;0.10;;
18875;SDS011;9570;50.854;13.778;2023-10-08T03:38:14;0.30;;;0.13;;
18875;SDS011;9570;50.854;13.778;2023-10-08T03:40:58;0.20;;;0.20;;
18875;SDS011;9570;50.854;13.778;2023-10-08T03:43:33;0.10;;;0.10;;
18875;SDS011;9570;50.854;13.778;2023-10-08T03:46:00;0.20;;;0.10;;
18875;SDS011;9570;50.854;13.778;2023-10-08T03:48:31;0.10;;;0.10;;
18875;SDS011;9570;50.854;13.778;2023-10-08T03:51:01;0.30;;;0.10;;
18875;SDS011;9570;50.854;13.778;2023-10-08T03:53:32;0.10;;;0.10;;
18875;SDS011;9570;50.854;13.778;2023-10-08T03:56:07;0.20;;;0.20;;
18875;SDS011;9570;50.854;13.778;2023-10-08T03:58:33;1.40;;;0.20;;
18875;SDS011;9570;50.854;13.778;2023-10-08T04:01:06;0.20;;;0.17;;
18875;SDS011;9570;50.854;13.778;2023-10-08T04:03:36;0.20;;;0.10;;
18875;SDS011;9570;50.854;13.778;2023-10-08T04:06:17;0.10;;;0.10;;
18875;SDS011;9570;50.854;13.778;2023-10-08T04:08:54;0.20;;;0.20;;
18875;SDS011;9570;50.854;13.778;2023-10-08T04:11:35;0.10;;;0.10;;
18875;SDS011;9570;50.854;13.778;2023-10-08T04:14:01;0.10;;;0.10;;
18875;SDS011;9570;50.854;13.778;2023-10-08T04:16:28;0.10;;;0.10;;
18875;SDS011;9570;50.854;13.778;2023-10-08T04:18:54;1.93;;;0.20;;
18875;SDS011;9570;50.854;13.778;2023-10-08T04:21:21;1.30;;;0.20;;
18875;SDS011;9570;50.854;13.778;2023-10-08T04:23:52;0.33;;;0.10;;
18875;SDS011;9570;50.854;13.778;2023-10-08T04:26:18;0.57;;;0.40;;
18875;SDS011;9570;50.854;13.778;2023-10-08T04:28:58;0.50;;;0.50;;
18875;SDS011;9570;50.854;13.778;2023-10-08T04:31:30;1.50;;;0.70;;
18875;SDS011;9570;50.854;13.778;2023-10-08T04:34:03;1.90;;;0.80;;
18875;SDS011;9570;50.854;13.778;2023-10-08T04:36:40;1.87;;;0.80;;
18875;SDS011;9570;50.854;13.778;2023-10-08T04:39:07;1.37;;;0.80;;
18875;SDS011;9570;50.854;13.778;2023-10-08T04:41:42;1.27;;;0.60;;
18875;SDS011;9570;50.854;13.778;2023-10-08T04:44:11;5.47;;;1.10;;
18875;SDS011;9570;50.854;13.778;2023-10-08T04:46:39;0.97;;;0.57;;
18875;SDS011;9570;50.854;13.778;2023-10-08T04:49:12;0.87;;;0.60;;
18875;SDS011;9570;50.854;13.778;2023-10-08T04:51:59;0.70;;;0.70;;
18875;SDS011;9570;50.854;13.778;2023-10-08T04:54:26;1.80;;;0.70;;
18875;SDS011;9570;50.854;13.778;2023-10-08T04:56:56;2.10;;;0.70;;
18875;SDS011;9570;50.854;13.778;2023-10-08T04:59:23;2.40;;;0.80;;
18875;SDS011;9570;50.854;13.778;2023-10-08T05:01:57;1.17;;;0.77;;
18875;SDS011;9570;50.854;13.778;2023-10-08T05:04:49;1.90;;;0.80;;
18875;SDS011;9570;50.854;13.778;2023-10-08T05:07:34;1.20;;;0.73;;
18875;SDS011;9570;50.854;13.778;2023-10-08T05:10:25;1.87;;;0.93;;
18875;SDS011;9570;50.854;13.778;2023-10-08T05:12:54;1.40;;;0.90;;
18875;SDS011;9570;50.854;13.778;2023-10-08T05:15:29;1.00;;;0.70;;
18875;SDS011;9570;50.854;13.778;2023-10-08T05:18:02;0.80;;;0.60;;
18875;SDS011;9570;50.854;13.778;2023-10-08T05:20:42;1.70;;;0.70;;
18875;SDS011;9570;50.854;13.778;2023-10-08T05:23:13;0.60;;;0.57;;
18875;SDS011;9570;50.854;13.778;2023-10-08T05:25:58;0.67;;;0.50;;
18875;SDS011;9570;50.854;13.778;2023-10-08T05:28:37;1.63;;;0.60;;
18875;SDS011;9570;50.854;13.778;2023-10-08T05:31:22;0.97;;;0.50;;
18875;SDS011;9570;50.854;13.778;2023-10-08T05:34:01;0.30;;;0.30;;
18875;SDS011;9570;50.854;13.778;2023-10-08T05:36:46;1.17;;;0.57;;
18875;SDS011;9570;50.854;13.778;2023-10-08T05:39:30;0.60;;;0.50;;
18875;SDS011;9570;50.854;13.778;2023-10-08T05:42:08;1.13;;;0.50;;
18875;SDS011;9570;50.854;13.778;2023-10-08T05:44:56;1.83;;;0.60;;
18875;SDS011;9570;50.854;13.778;2023-10-08T05:47:39;0.80;;;0.63;;
18875;SDS011;9570;50.854;13.778;2023-10-08T05:50:16;1.07;;;0.60;;
18875;SDS011;9570;50.854;13.778;2023-10-08T05:52:45;0.50;;;0.40;;
18875;SDS011;9570;50.854;13.778;2023-10-08T05:55:24;0.50;;;0.50;;
18875;SDS011;9570;50.854;13.778;2023-10-08T05:57:59;2.03;;;0.53;;
18875;SDS011;9570;50.854;13.778;2023-10-08T06:00:50;2.20;;;0.60;;
18875;SDS011;9570;50.854;13.778;2023-10-08T06:03:18;1.47;;;0.63;;
18875;SDS011;9570;50.854;13.778;2023-10-08T06:05:58;1.20;;;0.70;;
18875;SDS011;9570;50.854;13.778;2023-10-08T06:08:47;1.00;;;0.70;;
18875;SDS011;9570;50.854;13.778;2023-10-08T06:11:15;1.77;;;0.87;;
18875;SDS011;9570;50.854;13.778;2023-10-08T06:14:09;1.53;;;0.53;;
18875;SDS011;9570;50.854;13.778;2023-10-08T06:16:41;1.90;;;0.60;;
18875;SDS011;9570;50.854;13.778;2023-10-08T06:19:09;0.70;;;0.70;;
18875;SDS011;9570;50.854;13.778;2023-10-08T06:21:36;1.33;;;0.87;;
18875;SDS011;9570;50.854;13.778;2023-10-08T06:24:03;0.50;;;0.50;;
18875;SDS011;9570;50.854;13.778;2023-10-08T06:26:34;0.80;;;0.60;;
18875;SDS011;9570;50.854;13.778;2023-10-08T06:29:10;2.13;;;0.70;;
18875;SDS011;9570;50.854;13.778;2023-10-08T06:31:51;0.57;;;0.50;;
18875;SDS011;9570;50.854;13.778;2023-10-08T06:34:20;0.70;;;0.70;;
18875;SDS011;9570;50.854;13.778;2023-10-08T06:36:46;0.97;;;0.87;;
18875;SDS011;9570;50.854;13.778;2023-10-08T06:39:13;2.73;;;0.97;;
18875;SDS011;9570;50.854;13.778;2023-10-08T06:41:43;1.57;;;1.10;;
18875;SDS011;9570;50.854;13.778;2023-10-08T06:44:11;1.57;;;1.00;;
18875;SDS011;9570;50.854;13.778;2023-10-08T06:46:39;1.80;;;1.20;;
18875;SDS011;9570;50.854;13.778;2023-10-08T06:49:06;1.70;;;1.30;;
18875;SDS011;9570;50.854;13.778;2023-10-08T06:51:36;1.83;;;1.20;;
18875;SDS011;9570;50.854;13.778;2023-10-08T06:54:03;4.13;;;1.60;;
18875;SDS011;9570;50.854;13.778;2023-10-08T06:56:28;2.47;;;1.20;;
18875;SDS011;9570;50.854;13.778;2023-10-08T06:58:56;1.60;;;0.93;;
18875;SDS011;9570;50.854;13.778;2023-10-08T07:01:24;1.30;;;1.10;;
18875;SDS011;9570;50.854;13.778;2023-10-08T07:03:53;2.60;;;1.27;;
18875;SDS011;9570;50.854;13.778;2023-10-08T07:06:28;5.10;;;1.13;;
18875;SDS011;9570;50.854;13.778;2023-10-08T07:08:57;1.60;;;1.10;;
18875;SDS011;9570;50.854;13.778;2023-10-08T07:11:30;2.07;;;1.30;;
18875;SDS011;9570;50.854;13.778;2023-10-08T07:14:00;3.53;;;1.40;;
18875;SDS011;9570;50.854;13.778;2023-10-08T07:16:26;2.33;;;1.00;;
18875;SDS011;9570;50.854;13.778;2023-10-08T07:18:53;2.47;;;1.43;;
18875;SDS011;9570;50.854;13.778;2023-10-08T07:21:26;2.57;;;1.17;;
18875;SDS011;9570;50.854;13.778;2023-10-08T07:24:04;2.20;;;1.07;;
18875;SDS011;9570;50.854;13.778;2023-10-08T07:26:34;4.37;;;1.40;;
18875;SDS011;9570;50.854;13.778;2023-10-08T07:29:03;2.43;;;1.13;;
18875;SDS011;9570;50.854;13.778;2023-10-08T07:31:37;2.33;;;1.27;;
18875;SDS011;9570;50.854;13.778;2023-10-08T07:34:06;2.90;;;1.80;;
18875;SDS011;9570;50.854;13.778;2023-10-08T07:36:43;2.67;;;1.70;;
18875;SDS011;9570;50.854;13.778;2023-10-08T07:39:10;1.83;;;1.40;;
18875;SDS011;9570;50.854;13.778;2023-10-08T07:41:54;2.90;;;1.63;;
18875;SDS011;9570;50.854;13.778;2023-10-08T07:44:23;3.17;;;1.40;;
18875;SDS011;9570;50.854;13.778;2023-10-08T07:46:50;2.27;;;1.30;;
18875;SDS011;9570;50.854;13.778;2023-10-08T07:49:19;4.03;;;1.60;;
18875;SDS011;9570;50.854;13.778;2023-10-08T07:51:45;2.83;;;1.37;;
18875;SDS011;9570;50.854;13.778;2023-10-08T07:54:20;2.40;;;1.20;;
18875;SDS011;9570;50.854;13.778;2023-10-08T07:56:48;3.80;;;1.20;;
18875;SDS011;9570;50.854;13.778;2023-10-08T07:59:14;4.93;;;1.30;;
18875;SDS011;9570;50.854;13.778;2023-10-08T08:01:41;2.07;;;1.20;;
18875;SDS011;9570;50.854;13.778;2023-10-08T08:04:10;2.70;;;1.23;;
18875;SDS011;9570;50.854;13.778;2023-10-08T08:06:46;3.10;;;1.60;;
18875;SDS011;9570;50.854;13.778;2023-10-08T08:09:14;3.30;;;1.37;;
18875;SDS011;9570;50.854;13.778;2023-10-08T08:11:44;1.90;;;1.40;;
18875;SDS011;9570;50.854;13.778;2023-10-08T08:14:11;3.90;;;1.67;;
18875;SDS011;9570;50.854;13.778;2023-10-08T08:16:41;4.27;;;1.53;;
18875;SDS011;9570;50.854;13.778;2023-10-08T08:19:13;4.27;;;1.20;;
18875;SDS011;9570;50.854;13.778;2023-10-08T08:21:42;2.00;;;1.10;;
18875;SDS011;9570;50.854;13.778;2023-10-08T08:24:10;3.63;;;1.20;;
18875;SDS011;9570;50.854;13.778;2023-10-08T08:26:37;3.40;;;1.10;;
18875;SDS011;9570;50.854;13.778;2023-10-08T08:29:25;2.07;;;1.20;;
18875;SDS011;9570;50.854;13.778;2023-10-08T08:31:51;1.57;;;1.10;;
18875;SDS011;9570;50.854;13.778;2023-10-08T08:34:18;4.10;;;1.50;;
18875;SDS011;9570;50.854;13.778;2023-10-08T08:36:45;2.20;;;1.33;;
18875;SDS011;9570;50.854;13.778;2023-10-08T08:39:13;2.63;;;1.20;;
18875;SDS011;9570;50.854;13.778;2023-10-08T08:41:54;2.93;;;1.30;;
18875;SDS011;9570;50.854;13.778;2023-10-08T08:44:28;3.97;;;1.57;;
18875;SDS011;9570;50.854;13.778;2023-10-08T08:47:00;3.03;;;1.30;;
18875;SDS011;9570;50.854;13.778;2023-10-08T08:49:31;2.33;;;1.30;;
18875;SDS011;9570;50.854;13.778;2023-10-08T08:51:59;3.50;;;1.40;;
18875;SDS011;9570;50.854;13.778;2023-10-08T08:54:26;3.47;;;1.30;;
18875;SDS011;9570;50.854;13.778;2023-10-08T08:56:52;5.53;;;1.30;;
18875;SDS011;9570;50.854;13.778;2023-10-08T08:59:20;3.50;;;1.30;;
18875;SDS011;9570;50.854;13.778;2023-10-08T09:01:46;3.00;;;1.60;;
18875;SDS011;9570;50.854;13.778;2023-10-08T09:04:15;2.13;;;1.30;;
18875;SDS011;9570;50.854;13.778;2023-10-08T09:06:42;3.87;;;1.20;;
18875;SDS011;9570;50.854;13.778;2023-10-08T09:09:09;2.50;;;1.40;;
18875;SDS011;9570;50.854;13.778;2023-10-08T09:11:50;3.47;;;1.77;;
18875;SDS011;9570;50.854;13.778;2023-10-08T09:14:22;2.83;;;1.53;;
18875;SDS011;9570;50.854;13.778;2023-10-08T09:16:50;5.37;;;2.00;;
18875;SDS011;9570;50.854;13.778;2023-10-08T09:19:17;2.93;;;1.80;;
18875;SDS011;9570;50.854;13.778;2023-10-08T09:24:34;2.00;;;1.60;;
18875;SDS011;9570;50.854;13.778;2023-10-08T09:27:07;3.77;;;1.77;;
18875;SDS011;9570;50.854;13.778;2023-10-08T09:29:34;2.40;;;1.83;;
18875;SDS011;9570;50.854;13.778;2023-10-08T09:32:10;1.93;;;1.73;;
18875;SDS011;9570;50.854;13.778;2023-10-08T09:34:38;4.43;;;1.90;;
18875;SDS011;9570;50.854;13.778;2023-10-08T09:37:04;4.70;;;2.10;;
18875;SDS011;9570;50.854;13.778;2023-10-08T09:39:30;3.23;;;1.53;;
18875;SDS011;9570;50.854;13.778;2023-10-08T09:42:00;4.83;;;1.97;;
18875;SDS011;9570;50.854;13.778;2023-10-08T09:44:28;5.70;;;2.20;;
18875;SDS011;9570;50.854;13.778;2023-10-08T09:47:12;5.87;;;2.03;;
18875;SDS011;9570;50.854;13.778;2023-10-08T09:49:47;5.27;;;2.10;;
18875;SDS011;9570;50.854;13.778;2023-10-08T09:52:29;8.10;;;2.30;;
18875;SDS011;9570;50.854;13.778;2023-10-08T09:55:01;4.63;;;2.10;;
18875;SDS011;9570;50.854;13.778;2023-10-08T09:57:35;5.80;;;1.90;;
18875;SDS011;9570;50.854;13.778;2023-10-08T10:00:01;9.63;;;2.30;;
18875;SDS011;9570;50.854;13.778;2023-10-08T10:02:30;6.00;;;2.10;;
18875;SDS011;9570;50.854;13.778;2023-10-08T10:04:57;5.50;;;1.90;;
18875;SDS011;9570;50.854;13.778;2023-10-08T10:07:23;4.27;;;1.90;;
18875;SDS011;9570;50.854;13.778;2023-10-08T10:09:51;5.47;;;2.50;;
18875;SDS011;9570;50.854;13.778;2023-10-08T10:12:27;4.23;;;2.20;;
18875;SDS011;9570;50.854;13.778;2023-10-08T10:14:56;7.90;;;2.27;;
18875;SDS011;9570;50.854;13.778;2023-10-08T10:17:24;7.20;;;2.10;;
18875;SDS011;9570;50.854;13.778;2023-10-08T10:19:54;9.57;;;2.50;;
18875;SDS011;9570;50.854;13.778;2023-10-08T10:22:31;6.93;;;2.30;;
18875;SDS011;9570;50.854;13.778;2023-10-08T10:25:03;5.87;;;2.53;;
18875;SDS011;9570;50.854;13.778;2023-10-08T10:27:41;10.27;;;2.67;;
18875;SDS011;9570;50.854;13.778;2023-10-08T10:30:07;8.40;;;2.77;;
18875;SDS011;9570;50.854;13.778;2023-10-08T10:32:34;7.17;;;2.47;;
18875;SDS011;9570;50.854;13.778;2023-10-08T10:35:00;6.50;;;2.27;;
18875;SDS011;9570;50.854;13.778;2023-10-08T10:37:28;4.63;;;2.00;;
18875;SDS011;9570;50.854;13.778;2023-10-08T10:40:05;7.50;;;2.43;;
18875;SDS011;9570;50.854;13.778;2023-10-08T10:42:36;7.90;;;2.20;;
18875;SDS011;9570;50.854;13.778;2023-10-08T10:45:11;6.47;;;2.33;;
18875;SDS011;9570;50.854;13.778;2023-10-08T10:47:58;3.93;;;1.83;;
18875;SDS011;9570;50.854;13.778;2023-10-08T10:50:35;5.33;;;2.03;;
18875;SDS011;9570;50.854;13.778;2023-10-08T10:53:14;8.27;;;2.57;;
18875;SDS011;9570;50.854;13.778;2023-10-08T10:55:43;6.13;;;2.30;;
18875;SDS011;9570;50.854;13.778;2023-10-08T10:58:28;5.27;;;2.43;;
18875;SDS011;9570;50.854;13.778;2023-10-08T11:01:03;6.00;;;2.30;;
18875;SDS011;9570;50.854;13.778;2023-10-08T11:03:32;6.37;;;2.53;;
18875;SDS011;9570;50.854;13.778;2023-10-08T11:06:00;4.60;;;2.00;;
18875;SDS011;9570;50.854;13.778;2023-10-08T11:08:31;6.10;;;2.50;;
18875;SDS011;9570;50.854;13.778;2023-10-08T11:11:00;8.37;;;2.53;;
18875;SDS011;9570;50.854;13.778;2023-10-08T11:13:32;7.40;;;2.80;;
18875;SDS011;9570;50.854;13.778;2023-10-08T11:16:04;5.27;;;2.37;;
18875;SDS011;9570;50.854;13.778;2023-10-08T11:18:30;4.27;;;2.23;;
18875;SDS011;9570;50.854;13.778;2023-10-08T11:21:07;6.63;;;2.40;;
18875;SDS011;9570;50.854;13.778;2023-10-08T11:23:47;4.03;;;2.00;;
18875;SDS011;9570;50.854;13.778;2023-10-08T11:26:37;5.63;;;2.23;;
18875;SDS011;9570;50.854;13.778;2023-10-08T11:29:19;5.17;;;2.20;;
18875;SDS011;9570;50.854;13.778;2023-10-08T11:31:50;8.00;;;2.67;;
18875;SDS011;9570;50.854;13.778;2023-10-08T11:34:16;4.43;;;2.20;;
18875;SDS011;9570;50.854;13.778;2023-10-08T11:36:52;5.13;;;1.90;;
18875;SDS011;9570;50.854;13.778;2023-10-08T11:39:18;4.17;;;2.37;;
18875;SDS011;9570;50.854;13.778;2023-10-08T11:44:29;3.70;;;2.10;;
18875;SDS011;9570;50.854;13.778;2023-10-08T11:46:55;12.03;;;2.70;;
18875;SDS011;9570;50.854;13.778;2023-10-08T11:49:29;6.23;;;2.10;;
18875;SDS011;9570;50.854;13.778;2023-10-08T11:52:01;4.13;;;1.93;;
18875;SDS011;9570;50.854;13.778;2023-10-08T11:54:27;5.93;;;2.30;;
18875;SDS011;9570;50.854;13.778;2023-10-08T11:56:52;7.17;;;2.17;;
18875;SDS011;9570;50.854;13.778;2023-10-08T11:59:18;5.00;;;1.87;;
18875;SDS011;9570;50.854;13.778;2023-10-08T12:01:44;5.70;;;1.97;;
18875;SDS011;9570;50.854;13.778;2023-10-08T12:04:11;7.97;;;2.40;;
18875;SDS011;9570;50.854;13.778;2023-10-08T12:06:41;3.97;;;2.00;;
18875;SDS011;9570;50.854;13.778;2023-10-08T12:09:17;3.07;;;1.90;;
18875;SDS011;9570;50.854;13.778;2023-10-08T12:11:46;6.00;;;1.70;;
18875;SDS011;9570;50.854;13.778;2023-10-08T12:14:12;4.33;;;1.97;;
18875;SDS011;9570;50.854;13.778;2023-10-08T12:16:39;5.23;;;1.80;;
18875;SDS011;9570;50.854;13.778;2023-10-08T12:19:06;6.83;;;2.10;;
18875;SDS011;9570;50.854;13.778;2023-10-08T12:21:40;3.47;;;1.73;;
18875;SDS011;9570;50.854;13.778;2023-10-08T12:24:06;7.37;;;2.30;;
18875;SDS011;9570;50.854;13.778;2023-10-08T12:26:35;4.20;;;2.13;;
18875;SDS011;9570;50.854;13.778;2023-10-08T12:29:01;5.63;;;1.97;;
18875;SDS011;9570;50.854;13.778;2023-10-08T12:31:27;4.60;;;2.10;;
18875;SDS011;9570;50.854;13.778;2023-10-08T12:33:54;6.83;;;2.40;;
18875;SDS011;9570;50.854;13.778;2023-10-08T12:36:25;7.40;;;1.90;;
18875;SDS011;9570;50.854;13.778;2023-10-08T12:38:52;5.87;;;2.00;;
18875;SDS011;9570;50.854;13.778;2023-10-08T12:41:22;8.00;;;2.00;;
18875;SDS011;9570;50.854;13.778;2023-10-08T12:43:51;3.63;;;1.73;;
18875;SDS011;9570;50.854;13.778;2023-10-08T12:46:17;6.70;;;2.13;;
18875;SDS011;9570;50.854;13.778;2023-10-08T12:48:48;4.50;;;1.90;;
18875;SDS011;9570;50.854;13.778;2023-10-08T12:51:18;3.93;;;2.07;;
18875;SDS011;9570;50.854;13.778;2023-10-08T12:53:48;3.63;;;1.83;;
18875;SDS011;9570;50.854;13.778;2023-10-08T12:56:24;3.50;;;1.90;;
18875;SDS011;9570;50.854;13.778;2023-10-08T12:58:57;4.13;;;2.00;;
18875;SDS011;9570;50.854;13.778;2023-10-08T13:01:23;6.00;;;2.20;;
18875;SDS011;9570;50.854;13.778;2023-10-08T13:03:48;5.13;;;2.03;;
18875;SDS011;9570;50.854;13.778;2023-10-08T13:06:15;4.63;;;2.30;;
18875;SDS011;9570;50.854;13.778;2023-10-08T13:08:53;5.10;;;2.40;;
18875;SDS011;9570;50.854;13.778;2023-10-08T13:11:19;4.87;;;2.17;;
18875;SDS011;9570;50.854;13.778;2023-10-08T13:13:48;5.37;;;1.80;;
18875;SDS011;9570;50.854;13.778;2023-10-08T13:16:18;6.33;;;2.03;;
18875;SDS011;9570;50.854;13.778;2023-10-08T13:18:47;5.00;;;2.03;;
18875;SDS011;9570;50.854;13.778;2023-10-08T13:21:13;3.30;;;1.80;;
18875;SDS011;9570;50.854;13.778;2023-10-08T13:23:38;3.47;;;1.97;;
18875;SDS011;9570;50.854;13.778;2023-10-08T13:26:04;9.30;;;2.40;;
18875;SDS011;9570;50.854;13.778;2023-10-08T13:28:32;6.67;;;2.20;;
18875;SDS011;9570;50.854;13.778;2023-10-08T13:30:59;5.40;;;1.70;;
18875;SDS011;9570;50.854;13.778;2023-10-08T13:33:25;7.17;;;1.90;;
18875;SDS011;9570;50.854;13.778;2023-10-08T13:35:51;3.83;;;1.87;;
18875;SDS011;9570;50.854;13.778;2023-10-08T13:38:17;3.20;;;1.90;;
18875;SDS011;9570;50.854;13.778;2023-10-08T13:40:45;4.37;;;1.80;;
18875;SDS011;9570;50.854;13.778;2023-10-08T13:43:33;5.20;;;1.87;;
18875;SDS011;9570;50.854;13.778;2023-10-08T13:46:08;4.37;;;1.83;;
18875;SDS011;9570;50.854;13.778;2023-10-08T13:48:38;4.03;;;1.60;;
18875;SDS011;9570;50.854;13.778;2023-10-08T13:51:05;3.57;;;1.60;;
18875;SDS011;9570;50.854;13.778;2023-10-08T13:53:36;4.77;;;1.57;;
18875;SDS011;9570;50.854;13.778;2023-10-08T13:56:02;5.17;;;1.70;;
18875;SDS011;9570;50.854;13.778;2023-10-08T13:58:29;3.77;;;1.90;;
18875;SDS011;9570;50.854;13.778;2023-10-08T14:00:56;3.33;;;1.63;;
18875;SDS011;9570;50.854;13.778;2023-10-08T14:03:25;3.43;;;1.50;;
18875;SDS011;9570;50.854;13.778;2023-10-08T14:05:50;4.63;;;1.70;;
18875;SDS011;9570;50.854;13.778;2023-10-08T14:08:19;2.83;;;1.70;;
18875;SDS011;9570;50.854;13.778;2023-10-08T14:10:47;5.83;;;1.67;;
18875;SDS011;9570;50.854;13.778;2023-10-08T14:13:14;4.47;;;1.77;;
18875;SDS011;9570;50.854;13.778;2023-10-08T14:15:45;2.33;;;1.40;;
18875;SDS011;9570;50.854;13.778;2023-10-08T14:18:13;5.33;;;1.70;;
18875;SDS011;9570;50.854;13.778;2023-10-08T14:20:42;3.10;;;1.60;;
18875;SDS011;9570;50.854;13.778;2023-10-08T14:23:11;3.73;;;1.90;;
18875;SDS011;9570;50.854;13.778;2023-10-08T14:25:37;3.17;;;1.80;;
18875;SDS011;9570;50.854;13.778;2023-10-08T14:28:11;6.97;;;1.83;;
18875;SDS011;9570;50.854;13.778;2023-10-08T14:30:47;6.03;;;1.97;;
18875;SDS011;9570;50.854;13.778;2023-10-08T14:33:21;4.80;;;1.90;;
18875;SDS011;9570;50.854;13.778;2023-10-08T14:35:51;4.87;;;2.00;;
18875;SDS011;9570;50.854;13.778;2023-10-08T14:38:35;5.17;;;1.70;;
18875;SDS011;9570;50.854;13.778;2023-10-08T14:41:19;5.80;;;1.93;;
18875;SDS011;9570;50.854;13.778;2023-10-08T14:44:17;5.63;;;1.80;;
18875;SDS011;9570;50.854;13.778;2023-10-08T14:46:42;3.37;;;1.73;;
18875;SDS011;9570;50.854;13.778;2023-10-08T14:49:09;4.97;;;1.97;;
18875;SDS011;9570;50.854;13.778;2023-10-08T14:51:35;8.57;;;2.17;;
18875;SDS011;9570;50.854;13.778;2023-10-08T14:54:02;4.77;;;1.83;;
18875;SDS011;9570;50.854;13.778;2023-10-08T14:56:28;4.43;;;1.60;;
18875;SDS011;9570;50.854;13.778;2023-10-08T14:58:57;3.67;;;1.87;;
18875;SDS011;9570;50.854;13.778;2023-10-08T15:01:23;4.10;;;1.60;;
18875;SDS011;9570;50.854;13.778;2023-10-08T15:03:51;5.93;;;1.70;;
18875;SDS011;9570;50.854;13.778;2023-10-08T15:06:17;3.70;;;1.77;;
18875;SDS011;9570;50.854;13.778;2023-10-08T15:08:44;6.43;;;1.90;;
18875;SDS011;9570;50.854;13.778;2023-10-08T15:11:09;4.57;;;1.57;;
18875;SDS011;9570;50.854;13.778;2023-10-08T15:13:35;5.43;;;1.87;;
18875;SDS011;9570;50.854;13.778;2023-10-08T15:16:03;4.13;;;1.53;;